Wetterdaten: Woche 16.04.18 - 22.04.18 (KW16)
Datum Zeit Temp. A. Feuchte A. Luftdruck Regen Wind Richtung Taupunkt Windchill Windben
16.04.2018 00:00 15,3 C 79 % 1010,1 hPa 0,0 l/m 0,0 km/h N 11,6 C 15,3 C 0,0 km/h
16.04.2018 01:00 14,9 C 81 % 1009,3 hPa 0,0 l/m 0,0 km/h N 11,5 C 14,9 C 0,8 km/h
16.04.2018 02:00 14,9 C 81 % 1009,2 hPa 0,0 l/m 0,0 km/h N 11,6 C 14,9 C 0,4 km/h
16.04.2018 03:00 14,6 C 81 % 1009,5 hPa 0,0 l/m 0,0 km/h N 11,4 C 14,6 C 0,0 km/h
16.04.2018 04:00 14,3 C 82 % 1009,4 hPa 0,0 l/m 0,0 km/h N 11,2 C 14,3 C 0,0 km/h
16.04.2018 05:00 14,1 C 82 % 1009,1 hPa 0,0 l/m 0,0 km/h N 11,1 C 14,1 C 0,0 km/h
16.04.2018 06:00 14,1 C 82 % 1009,3 hPa 0,0 l/m 0,0 km/h N 11,1 C 14,1 C 0,0 km/h
16.04.2018 07:00 14,0 C 82 % 1009,4 hPa 0,0 l/m 0,0 km/h N 11,0 C 14,0 C 0,0 km/h
16.04.2018 08:00 14,9 C 82 % 1009,6 hPa 0,0 l/m 0,0 km/h N 11,8 C 14,9 C 0,4 km/h
16.04.2018 09:00 16,0 C 82 % 1009,7 hPa 0,0 l/m 0,0 km/h N 13,0 C 16,0 C 0,8 km/h
16.04.2018 10:00 17,1 C 81 % 1010,1 hPa 0,0 l/m 0,0 km/h N 13,7 C 17,1 C 1,2 km/h
16.04.2018 11:00 17,9 C 77 % 1010,8 hPa 0,0 l/m 0,2 km/h N 13,7 C 17,9 C 3,6 km/h
16.04.2018 12:00 18,4 C 71 % 1011,0 hPa 0,0 l/m 3,5 km/h N 13,0 C 18,4 C 13,3 km/h
16.04.2018 13:00 18,4 C 67 % 1011,4 hPa 0,0 l/m 5,3 km/h N 12,2 C 18,3 C 17,3 km/h
16.04.2018 14:00 18,6 C 66 % 1011,9 hPa 0,0 l/m 5,6 km/h N 12,0 C 18,3 C 16,9 km/h
16.04.2018 15:00 18,1 C 66 % 1012,2 hPa 0,0 l/m 6,5 km/h N 11,6 C 18,1 C 20,9 km/h
16.04.2018 16:00 17,4 C 68 % 1012,5 hPa 0,0 l/m 3,9 km/h N 11,3 C 17,1 C 12,1 km/h
16.04.2018 17:00 16,9 C 71 % 1012,9 hPa 0,0 l/m 0,4 km/h N 11,6 C 16,9 C 7,2 km/h
16.04.2018 18:00 16,0 C 77 % 1013,2 hPa 0,3 l/m 0,1 km/h N 11,9 C 16,0 C 2,8 km/h
16.04.2018 19:00 15,6 C 75 % 1013,6 hPa 0,0 l/m 0,8 km/h N 11,2 C 15,6 C 9,3 km/h
16.04.2018 20:00 15,9 C 72 % 1014,3 hPa 0,0 l/m 4,1 km/h N 10,9 C 15,9 C 14,5 km/h
16.04.2018 21:00 15,8 C 72 % 1015,2 hPa 0,0 l/m 4,0 km/h N 10,7 C 15,7 C 15,7 km/h
16.04.2018 22:00 15,6 C 74 % 1015,9 hPa 0,0 l/m 7,3 km/h N 11,0 C 15,1 C 18,1 km/h
16.04.2018 23:00 15,1 C 76 % 1016,4 hPa 0,0 l/m 4,5 km/h N 11,0 C 15,1 C 14,5 km/h
17.04.2018 00:00 14,9 C 77 % 1017,1 hPa 0,0 l/m 4,5 km/h N 10,9 C 14,9 C 12,9 km/h
17.04.2018 01:00 14,4 C 79 % 1017,5 hPa 0,0 l/m 3,9 km/h N 10,7 C 14,4 C 12,1 km/h
17.04.2018 02:00 14,2 C 79 % 1018,0 hPa 0,0 l/m 4,4 km/h N 10,6 C 14,2 C 11,3 km/h
17.04.2018 03:00 14,1 C 79 % 1018,7 hPa 0,0 l/m 3,8 km/h N 10,5 C 14,1 C 12,9 km/h
17.04.2018 04:00 13,9 C 79 % 1019,1 hPa 0,0 l/m 5,4 km/h N 10,3 C 13,8 C 16,5 km/h
17.04.2018 05:00 13,5 C 79 % 1019,3 hPa 0,0 l/m 7,3 km/h N 9,9 C 13,0 C 18,1 km/h
17.04.2018 06:00 13,2 C 79 % 1020,0 hPa 0,0 l/m 5,1 km/h N 9,7 C 13,2 C 14,9 km/h
17.04.2018 07:00 13,4 C 79 % 1020,8 hPa 0,0 l/m 5,7 km/h N 9,9 C 13,0 C 16,5 km/h
17.04.2018 08:00 14,4 C 77 % 1021,3 hPa 0,0 l/m 9,1 km/h N 10,3 C 12,9 C 24,9 km/h
17.04.2018 09:00 15,8 C 69 % 1021,8 hPa 0,0 l/m 9,8 km/h N 10,2 C 14,1 C 27,3 km/h
17.04.2018 10:00 17,3 C 63 % 1022,4 hPa 0,0 l/m 10,1 km/h N 10,2 C 15,6 C 25,3 km/h
17.04.2018 11:00 18,1 C 62 % 1022,8 hPa 0,0 l/m 9,9 km/h N 10,6 C 16,6 C 25,8 km/h
17.04.2018 12:00 19,0 C 59 % 1022,7 hPa 0,0 l/m 11,5 km/h N 10,7 C 17,0 C 28,9 km/h
17.04.2018 13:00 19,6 C 55 % 1022,6 hPa 0,0 l/m 11,3 km/h N 10,3 C 17,8 C 26,5 km/h
17.04.2018 14:00 20,6 C 51 % 1022,6 hPa 0,0 l/m 9,9 km/h N 10,1 C 19,4 C 22,9 km/h
17.04.2018 15:00 20,9 C 47 % 1022,6 hPa 0,0 l/m 8,7 km/h N 9,1 C 20,0 C 21,7 km/h
17.04.2018 16:00 20,9 C 48 % 1022,5 hPa 0,0 l/m 8,5 km/h N 9,4 C 20,1 C 21,7 km/h
17.04.2018 17:00 20,6 C 50 % 1022,8 hPa 0,0 l/m 5,8 km/h N 9,6 C 20,5 C 20,1 km/h
17.04.2018 18:00 20,1 C 51 % 1023,1 hPa 0,0 l/m 6,0 km/h N 9,5 C 19,7 C 17,7 km/h
17.04.2018 19:00 19,4 C 52 % 1023,6 hPa 0,0 l/m 2,6 km/h N 9,2 C 19,4 C 12,9 km/h
17.04.2018 20:00 18,2 C 59 % 1024,7 hPa 0,0 l/m 0,3 km/h N 10,0 C 18,2 C 4,8 km/h
17.04.2018 21:00 16,4 C 64 % 1025,9 hPa 0,0 l/m 0,0 km/h N 9,6 C 16,4 C 0,8 km/h
17.04.2018 22:00 15,1 C 67 % 1026,8 hPa 0,0 l/m 0,0 km/h N 8,9 C 15,1 C 2,4 km/h
17.04.2018 23:00 14,3 C 70 % 1027,3 hPa 0,0 l/m 0,1 km/h N 8,7 C 14,3 C 3,2 km/h
18.04.2018 00:00 13,0 C 74 % 1028,0 hPa 0,0 l/m 0,1 km/h N 8,4 C 13,0 C 2,8 km/h
18.04.2018 01:00 11,9 C 75 % 1028,4 hPa 0,0 l/m 0,0 km/h N 7,5 C 11,9 C 0,4 km/h
18.04.2018 02:00 10,5 C 78 % 1028,7 hPa 0,0 l/m 0,0 km/h N 6,7 C 10,5 C 1,6 km/h
18.04.2018 03:00 10,6 C 78 % 1029,0 hPa 0,0 l/m 0,1 km/h N 6,9 C 10,6 C 2,8 km/h
18.04.2018 04:00 10,2 C 78 % 1029,3 hPa 0,0 l/m 0,0 km/h N 6,6 C 10,2 C 1,6 km/h
18.04.2018 05:00 9,1 C 79 % 1029,8 hPa 0,0 l/m 0,0 km/h N 5,6 C 9,1 C 0,4 km/h
18.04.2018 06:00 10,3 C 79 % 1030,2 hPa 0,0 l/m 0,8 km/h N 6,8 C 10,3 C 6,8 km/h
18.04.2018 07:00 11,9 C 76 % 1030,8 hPa 0,0 l/m 1,8 km/h N 7,7 C 11,9 C 7,2 km/h
18.04.2018 08:00 13,6 C 73 % 1031,2 hPa 0,0 l/m 3,8 km/h N 8,8 C 13,6 C 13,3 km/h
18.04.2018 09:00 15,5 C 68 % 1031,5 hPa 0,0 l/m 4,2 km/h N 9,7 C 15,5 C 14,5 km/h
18.04.2018 10:00 16,8 C 64 % 1031,6 hPa 0,0 l/m 5,2 km/h N 9,9 C 16,8 C 16,1 km/h
18.04.2018 11:00 18,0 C 58 % 1031,5 hPa 0,0 l/m 6,5 km/h N 9,5 C 17,9 C 21,7 km/h
18.04.2018 12:00 18,6 C 56 % 1031,3 hPa 0,0 l/m 7,2 km/h N 9,5 C 18,3 C 20,9 km/h
18.04.2018 13:00 19,5 C 52 % 1030,9 hPa 0,0 l/m 7,4 km/h N 9,4 C 19,0 C 21,7 km/h
18.04.2018 14:00 20,5 C 47 % 1030,4 hPa 0,0 l/m 6,2 km/h N 8,8 C 20,4 C 19,3 km/h
18.04.2018 15:00 21,2 C 42 % 1030,0 hPa 0,0 l/m 6,1 km/h N 7,7 C 21,0 C 21,3 km/h
18.04.2018 16:00 21,4 C 41 % 1029,7 hPa 0,0 l/m 6,6 km/h N 7,4 C 21,2 C 19,3 km/h
18.04.2018 17:00 21,3 C 40 % 1029,6 hPa 0,0 l/m 4,9 km/h N 7,1 C 21,3 C 14,9 km/h
18.04.2018 18:00 21,2 C 40 % 1029,3 hPa 0,0 l/m 3,3 km/h N 7,0 C 21,2 C 12,9 km/h
18.04.2018 19:00 20,4 C 44 % 1029,3 hPa 0,0 l/m 1,7 km/h N 7,6 C 20,4 C 6,8 km/h
18.04.2018 20:00 17,7 C 51 % 1029,6 hPa 0,0 l/m 0,0 km/h N 7,4 C 17,7 C 0,0 km/h
18.04.2018 21:00 14,6 C 61 % 1029,9 hPa 0,0 l/m 0,0 km/h N 7,0 C 14,6 C 0,0 km/h
18.04.2018 22:00 12,6 C 69 % 1029,9 hPa 0,0 l/m 0,0 km/h N 7,1 C 12,6 C 1,2 km/h
18.04.2018 23:00 11,1 C 75 % 1030,0 hPa 0,0 l/m 0,0 km/h N 6,8 C 11,1 C 0,4 km/h
19.04.2018 00:00 10,7 C 76 % 1030,3 hPa 0,0 l/m 0,0 km/h N 6,7 C 10,7 C 1,2 km/h
19.04.2018 01:00 10,3 C 76 % 1030,6 hPa 0,0 l/m 0,0 km/h N 6,3 C 10,3 C 0,0 km/h
19.04.2018 02:00 9,6 C 78 % 1030,4 hPa 0,0 l/m 0,0 km/h N 5,9 C 9,6 C 1,2 km/h
19.04.2018 03:00 9,1 C 78 % 1030,4 hPa 0,0 l/m 0,0 km/h N 5,5 C 9,1 C 0,8 km/h
19.04.2018 04:00 8,4 C 79 % 1030,4 hPa 0,0 l/m 0,0 km/h N 5,0 C 8,4 C 0,8 km/h
19.04.2018 05:00 8,2 C 80 % 1030,4 hPa 0,0 l/m 0,0 km/h N 4,8 C 8,2 C 0,8 km/h
19.04.2018 06:00 8,8 C 79 % 1030,3 hPa 0,0 l/m 0,0 km/h N 5,3 C 8,8 C 2,0 km/h
19.04.2018 07:00 10,5 C 76 % 1030,3 hPa 0,0 l/m 0,1 km/h N 6,4 C 10,5 C 2,4 km/h
19.04.2018 08:00 13,5 C 69 % 1030,2 hPa 0,0 l/m 0,6 km/h N 7,9 C 13,5 C 3,6 km/h
19.04.2018 09:00 18,0 C 56 % 1030,0 hPa 0,0 l/m 3,8 km/h N 8,9 C 18,0 C 13,3 km/h
19.04.2018 10:00 19,8 C 52 % 1029,9 hPa 0,0 l/m 4,1 km/h N 9,5 C 19,8 C 14,9 km/h
19.04.2018 11:00 21,0 C 49 % 1029,8 hPa 0,0 l/m 3,4 km/h N 9,9 C 21,0 C 15,7 km/h
19.04.2018 12:00 21,7 C 48 % 1029,5 hPa 0,0 l/m 4,5 km/h N 10,3 C 21,7 C 16,1 km/h
19.04.2018 13:00 22,4 C 49 % 1028,9 hPa 0,0 l/m 3,0 km/h N 11,0 C 22,4 C 13,7 km/h
19.04.2018 14:00 23,3 C 47 % 1028,3 hPa 0,0 l/m 3,5 km/h N 11,3 C 23,3 C 12,1 km/h
19.04.2018 15:00 23,9 C 44 % 1027,6 hPa 0,0 l/m 3,9 km/h N 10,9 C 23,9 C 14,9 km/h
19.04.2018 16:00 24,0 C 43 % 1026,9 hPa 0,0 l/m 3,9 km/h N 10,7 C 24,0 C 16,9 km/h
19.04.2018 17:00 24,0 C 41 % 1026,5 hPa 0,0 l/m 2,7 km/h N 10,0 C 24,0 C 14,5 km/h
19.04.2018 18:00 23,6 C 42 % 1026,0 hPa 0,0 l/m 2,6 km/h N 9,9 C 23,6 C 12,1 km/h
19.04.2018 19:00 22,6 C 45 % 1025,6 hPa 0,0 l/m 0,3 km/h N 10,2 C 22,6 C 4,0 km/h
19.04.2018 20:00 19,5 C 53 % 1025,6 hPa 0,0 l/m 0,0 km/h N 9,7 C 19,5 C 0,0 km/h
19.04.2018 21:00 16,7 C 62 % 1025,9 hPa 0,0 l/m 0,0 km/h N 9,4 C 16,7 C 0,4 km/h
19.04.2018 22:00 15,1 C 67 % 1025,8 hPa 0,0 l/m 0,1 km/h N 9,0 C 15,1 C 1,2 km/h
19.04.2018 23:00 15,7 C 66 % 1026,2 hPa 0,0 l/m 0,1 km/h N 9,4 C 15,7 C 4,0 km/h
20.04.2018 00:00 15,9 C 66 % 1026,1 hPa 0,0 l/m 0,0 km/h N 9,6 C 15,9 C 1,6 km/h
20.04.2018 01:00 14,6 C 70 % 1026,1 hPa 0,0 l/m 0,0 km/h N 9,2 C 14,6 C 0,4 km/h
20.04.2018 02:00 13,1 C 76 % 1026,2 hPa 0,0 l/m 0,0 km/h N 9,0 C 13,1 C 0,8 km/h
20.04.2018 03:00 13,6 C 77 % 1026,1 hPa 0,0 l/m 0,0 km/h N 9,6 C 13,6 C 0,8 km/h
20.04.2018 04:00 13,0 C 76 % 1025,9 hPa 0,0 l/m 0,0 km/h N 8,9 C 13,0 C 0,4 km/h
20.04.2018 05:00 11,9 C 79 % 1025,9 hPa 0,0 l/m 0,0 km/h N 8,2 C 11,9 C 0,0 km/h
20.04.2018 06:00 11,4 C 81 % 1026,1 hPa 0,0 l/m 0,0 km/h N 8,2 C 11,4 C 0,0 km/h
20.04.2018 07:00 12,6 C 82 % 1026,2 hPa 0,0 l/m 0,0 km/h N 9,5 C 12,6 C 1,6 km/h
20.04.2018 08:00 15,8 C 76 % 1026,2 hPa 0,0 l/m 1,0 km/h N 11,6 C 15,8 C 6,0 km/h
20.04.2018 09:00 19,5 C 63 % 1026,1 hPa 0,0 l/m 1,3 km/h N 12,3 C 19,5 C 9,3 km/h
20.04.2018 10:00 21,4 C 56 % 1026,0 hPa 0,0 l/m 1,4 km/h N 12,3 C 21,4 C 10,9 km/h
20.04.2018 11:00 22,1 C 53 % 1025,7 hPa 0,0 l/m 1,8 km/h N 11,9 C 22,1 C 12,1 km/h
20.04.2018 12:00 22,7 C 50 % 1025,2 hPa 0,0 l/m 1,8 km/h N 11,6 C 22,7 C 10,5 km/h
20.04.2018 13:00 23,7 C 45 % 1024,6 hPa 0,0 l/m 1,0 km/h N 11,2 C 23,7 C 8,8 km/h
20.04.2018 14:00 24,5 C 39 % 1023,9 hPa 0,0 l/m 1,2 km/h N 9,8 C 24,5 C 9,7 km/h
20.04.2018 15:00 25,3 C 39 % 1023,1 hPa 0,0 l/m 1,4 km/h N 10,4 C 25,3 C 8,4 km/h
20.04.2018 16:00 25,0 C 37 % 1022,5 hPa 0,0 l/m 1,3 km/h N 9,2 C 25,0 C 10,9 km/h
20.04.2018 17:00 24,8 C 37 % 1022,0 hPa 0,0 l/m 1,1 km/h N 8,9 C 24,8 C 8,0 km/h
20.04.2018 18:00 24,5 C 38 % 1021,5 hPa 0,0 l/m 1,2 km/h N 9,3 C 24,5 C 8,0 km/h
20.04.2018 19:00 23,3 C 45 % 1021,4 hPa 0,0 l/m 0,3 km/h N 10,5 C 23,3 C 5,2 km/h
20.04.2018 20:00 20,4 C 51 % 1021,7 hPa 0,0 l/m 0,0 km/h N 9,9 C 20,4 C 0,0 km/h
20.04.2018 21:00 17,0 C 60 % 1021,9 hPa 0,0 l/m 0,0 km/h N 9,0 C 17,0 C 0,0 km/h
20.04.2018 22:00 15,1 C 65 % 1021,6 hPa 0,0 l/m 0,0 km/h N 8,6 C 15,1 C 1,2 km/h
20.04.2018 23:00 14,1 C 69 % 1021,3 hPa 0,0 l/m 0,0 km/h N 8,4 C 14,1 C 0,0 km/h
21.04.2018 00:00 13,5 C 71 % 1021,0 hPa 0,0 l/m 0,1 km/h N 8,4 C 13,5 C 2,8 km/h
21.04.2018 01:00 12,7 C 72 % 1020,7 hPa 0,0 l/m 0,0 km/h N 7,7 C 12,7 C 0,0 km/h
21.04.2018 02:00 11,2 C 76 % 1020,1 hPa 0,0 l/m 0,0 km/h N 7,1 C 11,2 C 0,8 km/h
21.04.2018 03:00 10,4 C 78 % 1019,8 hPa 0,0 l/m 0,0 km/h N 6,6 C 10,4 C 0,0 km/h
21.04.2018 04:00 9,6 C 80 % 1019,5 hPa 0,0 l/m 0,0 km/h N 6,3 C 9,6 C 0,4 km/h
21.04.2018 05:00 8,8 C 80 % 1019,5 hPa 0,0 l/m 0,0 km/h N 5,6 C 8,8 C 0,0 km/h
21.04.2018 06:00 8,0 C 82 % 1019,6 hPa 0,0 l/m 0,0 km/h N 5,1 C 8,0 C 0,0 km/h
21.04.2018 07:00 8,6 C 82 % 1019,7 hPa 0,0 l/m 0,0 km/h N 5,7 C 8,6 C 0,0 km/h
21.04.2018 08:00 11,2 C 82 % 1019,6 hPa 0,0 l/m 0,0 km/h N 8,2 C 11,2 C 0,8 km/h
21.04.2018 09:00 15,8 C 74 % 1019,2 hPa 0,0 l/m 0,0 km/h N 11,1 C 15,8 C 2,4 km/h
21.04.2018 10:00 20,8 C 60 % 1019,0 hPa 0,0 l/m 0,1 km/h N 12,6 C 20,8 C 2,0 km/h
21.04.2018 11:00 22,9 C 56 % 1018,7 hPa 0,0 l/m 0,2 km/h N 13,5 C 22,9 C 3,6 km/h
21.04.2018 12:00 24,8 C 51 % 1018,1 hPa 0,0 l/m 0,1 km/h N 13,9 C 24,8 C 2,4 km/h
21.04.2018 13:00 25,5 C 48 % 1017,6 hPa 0,0 l/m 0,5 km/h N 13,7 C 25,5 C 5,6 km/h
21.04.2018 14:00 26,2 C 45 % 1016,9 hPa 0,0 l/m 0,6 km/h N 13,1 C 26,2 C 4,4 km/h
21.04.2018 15:00 27,1 C 40 % 1016,1 hPa 0,0 l/m 0,4 km/h N 12,3 C 27,1 C 6,0 km/h
21.04.2018 16:00 26,8 C 40 % 1015,4 hPa 0,0 l/m 0,1 km/h N 11,9 C 26,8 C 4,0 km/h
21.04.2018 17:00 26,8 C 38 % 1014,8 hPa 0,0 l/m 0,1 km/h N 11,3 C 26,8 C 3,6 km/h
21.04.2018 18:00 26,4 C 40 % 1014,3 hPa 0,0 l/m 0,0 km/h N 11,6 C 26,4 C 1,2 km/h
21.04.2018 19:00 24,9 C 46 % 1014,1 hPa 0,0 l/m 0,0 km/h N 12,4 C 24,9 C 0,0 km/h
21.04.2018 20:00 21,4 C 54 % 1014,6 hPa 0,0 l/m 0,0 km/h N 11,6 C 21,4 C 0,8 km/h
21.04.2018 21:00 18,4 C 61 % 1014,7 hPa 0,0 l/m 0,0 km/h N 10,6 C 18,4 C 0,4 km/h
21.04.2018 22:00 17,0 C 64 % 1014,5 hPa 0,0 l/m 0,4 km/h N 10,0 C 17,0 C 4,0 km/h
21.04.2018 23:00 16,9 C 62 % 1014,5 hPa 0,0 l/m 0,1 km/h N 9,4 C 16,9 C 2,4 km/h
22.04.2018 00:00 15,8 C 66 % 1014,3 hPa 0,0 l/m 0,0 km/h N 9,3 C 15,8 C 0,8 km/h
22.04.2018 01:00 14,4 C 71 % 1014,4 hPa 0,0 l/m 0,2 km/h N 9,3 C 14,4 C 3,6 km/h
22.04.2018 02:00 13,4 C 76 % 1014,3 hPa 0,0 l/m 0,1 km/h N 9,1 C 13,4 C 2,0 km/h
22.04.2018 03:00 13,2 C 77 % 1014,4 hPa 0,0 l/m 0,1 km/h N 9,3 C 13,2 C 3,2 km/h
22.04.2018 04:00 16,4 C 66 % 1014,3 hPa 0,0 l/m 1,4 km/h N 10,0 C 16,4 C 8,0 km/h
22.04.2018 05:00 17,0 C 65 % 1014,3 hPa 0,0 l/m 0,8 km/h N 10,4 C 17,0 C 8,9 km/h
22.04.2018 06:00 16,6 C 67 % 1014,7 hPa 0,0 l/m 0,9 km/h N 10,4 C 16,6 C 7,6 km/h
22.04.2018 07:00 17,0 C 68 % 1015,2 hPa 0,0 l/m 3,6 km/h N 10,9 C 17,0 C 12,1 km/h
22.04.2018 08:00 18,1 C 66 % 1015,3 hPa 0,0 l/m 3,9 km/h N 11,7 C 18,1 C 12,5 km/h
22.04.2018 09:00 19,6 C 63 % 1015,3 hPa 0,0 l/m 4,9 km/h N 12,3 C 19,6 C 14,9 km/h
22.04.2018 10:00 21,7 C 59 % 1015,3 hPa 0,0 l/m 3,8 km/h N 13,3 C 21,7 C 14,1 km/h
22.04.2018 11:00 23,2 C 56 % 1015,0 hPa 0,0 l/m 3,6 km/h N 13,8 C 23,2 C 12,9 km/h
22.04.2018 12:00 24,6 C 50 % 1014,5 hPa 0,0 l/m 1,9 km/h N 13,4 C 24,6 C 10,9 km/h
22.04.2018 13:00 25,7 C 48 % 1013,9 hPa 0,0 l/m 1,3 km/h N 13,7 C 25,7 C 10,4 km/h
22.04.2018 14:00 26,0 C 47 % 1013,5 hPa 0,0 l/m 2,8 km/h N 13,7 C 26,0 C 16,1 km/h
22.04.2018 15:00 26,1 C 47 % 1012,9 hPa 0,0 l/m 2,3 km/h N 13,8 C 26,1 C 11,7 km/h
22.04.2018 16:00 26,2 C 45 % 1012,3 hPa 0,0 l/m 1,5 km/h N 13,3 C 26,2 C 11,3 km/h
22.04.2018 17:00 26,1 C 46 % 1011,9 hPa 0,0 l/m 0,9 km/h N 13,5 C 26,1 C 8,0 km/h
22.04.2018 18:00 25,5 C 47 % 1011,9 hPa 0,0 l/m 0,2 km/h N 13,2 C 25,5 C 6,0 km/h
22.04.2018 19:00 24,3 C 50 % 1012,1 hPa 0,0 l/m 0,0 km/h N 13,0 C 24,3 C 0,4 km/h
22.04.2018 20:00 21,7 C 58 % 1012,6 hPa 0,0 l/m 0,0 km/h N 13,1 C 21,7 C 0,0 km/h
22.04.2018 21:00 18,6 C 67 % 1013,1 hPa 0,0 l/m 0,0 km/h N 12,4 C 18,6 C 0,0 km/h
22.04.2018 22:00 17,0 C 73 % 1013,1 hPa 0,0 l/m 0,0 km/h N 12,2 C 17,0 C 0,0 km/h
22.04.2018 23:00 16,2 C 76 % 1013,0 hPa 0,0 l/m 0,0 km/h N 11,8 C 16,2 C 0,8 km/h
Min-Datum _ 21.04.18 20.04.18 16.04.18 - 16.04.18 - 19.04.18 21.04.18 16.04.18
_ Min-Zeit 06:30 16:45 02:45 - 00:00 - 05:30 06:30 00:00
Minimum _ 7,9 C 35 % 1008,8 hPa - 0,0 km/h - 4,7 C 7,9 C 0,0 km/h
Max-Datum _ 21.04.18 16.04.18 18.04.18 16.04.18 17.04.18 - 21.04.18 21.04.18 17.04.18
_ Max-Zeit 15:15 04:15 10:00 18:00 13:15 - 13:30 15:00 12:45
Maximum _ 27,4 C 82 % 1031,6 hPa 0,3 l/m 12,8 km/h
N
- 14,5 C 27,3 C 38,6 km/h
N
Durchschnitt _ 17,4 C 64 % 1021,1 hPa #0,3 l/m 2,0 km/h N 10,0 C 17,3 C 7,8 km/h